Time;durP1;ratioP1;P1;durP2;ratioP2;P2;SDS_P1;SDS_P2;PMS_P1;PMS_P2;Temp;Humidity;BMP_temperature;BMP_pressure;BME280_temperature;BME280_humidity;BME280_pressure;Samples;Min_cycle;Max_cycle;Signal;HPM_P1;HPM_P2
2022/01/02 00:01:39;;;;;;;;;;;7.60;99.90;;;;;;5088898;28;19908;-74
2022/01/02 00:04:04;;;;;;;;;;;7.70;99.90;;;;;;5097040;28;19922;-73
2022/01/02 00:06:32;;;;;;;;;;;7.60;99.90;;;;;;5097600;28;19908;-74
2022/01/02 00:09:03;;;;;;;;;;;7.70;99.90;;;;;;5097114;28;19923;-74
2022/01/02 00:11:28;;;;;;;;;;;7.80;99.90;;;;;;5096944;28;19991;-74
2022/01/02 00:13:59;;;;;;;;;;;7.60;99.90;;;;;;5097316;28;19948;-73
2022/01/02 00:16:25;;;;;;;;;;;7.40;99.90;;;;;;5097150;28;19919;-74
2022/01/02 00:19:03;;;;;;;;;;;7.60;99.90;;;;;;5097333;28;19962;-74
2022/01/02 00:21:31;;;;;;;;;;;7.70;99.90;;;;;;5097288;28;19908;-73
2022/01/02 00:24:02;;;;;;;;;;;7.60;99.90;;;;;;5097191;28;19924;-73
2022/01/02 00:26:35;;;;;;;;;;;7.80;99.90;;;;;;5097069;28;19958;-73
2022/01/02 00:29:02;;;;;;;;;;;7.80;99.90;;;;;;5096814;28;19923;-73
2022/01/02 00:31:29;;;;;;;;;;;7.80;99.90;;;;;;5096812;28;19917;-73
2022/01/02 00:33:55;;;;;;;;;;;7.80;99.90;;;;;;5096813;28;19908;-73
2022/01/02 00:36:21;;;;;;;;;;;7.80;99.90;;;;;;5096793;28;19955;-73
2022/01/02 00:38:46;;;;;;;;;;;7.80;99.90;;;;;;5096620;28;19954;-73
2022/01/02 00:41:13;;;;;;;;;;;7.80;99.90;;;;;;5096676;28;19960;-73
2022/01/02 00:43:39;;;;;;;;;;;;;;;;;;5096583;28;20347;-72
2022/01/02 00:46:06;;;;;;;;;;;;;;;;;;5096543;28;19915;-73
2022/01/02 00:48:34;;;;;;;;;;;8.00;99.90;;;;;;5096402;28;19919;-73
2022/01/02 00:51:03;;;;;;;;;;;8.00;99.90;;;;;;5096413;28;20271;-73
2022/01/02 00:53:35;;;;;;;;;;;7.60;99.90;;;;;;5078405;28;19908;-74
2022/01/02 00:59:15;;;;;;;;;;;7.00;99.90;;;;;;5074309;28;19931;-75
2022/01/02 01:01:41;;;;;;;;;;;6.90;99.90;;;;;;5076338;28;19915;-87
2022/01/02 01:04:07;;;;;;;;;;;6.80;99.90;;;;;;5076147;28;20050;-79
2022/01/02 01:06:35;;;;;;;;;;;6.80;99.90;;;;;;5076305;28;20358;-87
2022/01/02 01:09:04;;;;;;;;;;;6.70;99.90;;;;;;5076065;28;20001;-87
2022/01/02 01:11:30;;;;;;;;;;;6.60;99.90;;;;;;5076217;28;19909;-87
2022/01/02 01:13:56;;;;;;;;;;;6.60;99.90;;;;;;5076004;28;19912;-80
2022/01/02 01:16:22;;;;;;;;;;;6.50;99.90;;;;;;5075786;28;19918;-85
2022/01/02 01:18:48;;;;;;;;;;;6.50;99.90;;;;;;5075622;28;19908;-83
2022/01/02 01:21:14;;;;;;;;;;;6.40;99.90;;;;;;5075764;28;19909;-84
2022/01/02 01:23:41;;;;;;;;;;;6.50;99.90;;;;;;5076075;28;19994;-85
2022/01/02 01:26:08;;;;;;;;;;;6.20;99.90;;;;;;5075902;28;19908;-75
2022/01/02 01:28:34;;;;;;;;;;;6.10;99.90;;;;;;5075530;28;19955;-84
2022/01/02 01:31:00;;;;;;;;;;;6.20;99.90;;;;;;5075646;28;19915;-85
2022/01/02 01:33:25;;;;;;;;;;;6.30;99.90;;;;;;5075515;28;19909;-85
2022/01/02 01:35:51;;;;;;;;;;;6.20;99.90;;;;;;5075315;28;19961;-77
2022/01/02 01:38:17;;;;;;;;;;;6.30;99.90;;;;;;5057501;28;19920;-84
2022/01/02 01:40:46;;;;;;;;;;;6.30;99.90;;;;;;5060302;28;19920;-84
2022/01/02 01:43:13;;;;;;;;;;;6.20;99.90;;;;;;5075213;28;19912;-78
2022/01/02 01:45:39;;;;;;;;;;;6.20;99.90;;;;;;5075202;28;19908;-84
2022/01/02 01:48:06;;;;;;;;;;;6.00;99.90;;;;;;5075159;28;19917;-82
2022/01/02 01:50:33;;;;;;;;;;;6.00;99.90;;;;;;5074019;28;19908;-84
2022/01/02 01:52:58;;;;;;;;;;;6.00;99.90;;;;;;5073934;28;19918;-77
2022/01/02 01:55:24;;;;;;;;;;;6.10;99.90;;;;;;5075198;28;19908;-86
2022/01/02 01:57:50;;;;;;;;;;;5.90;99.90;;;;;;5074953;28;20353;-76
2022/01/02 02:00:16;;;;;;;;;;;5.70;99.90;;;;;;5056980;28;19908;-86
2022/01/02 02:02:43;;;;;;;;;;;6.00;99.90;;;;;;5075075;28;19908;-80
2022/01/02 02:05:08;;;;;;;;;;;6.00;99.90;;;;;;5074834;28;19943;-81
2022/01/02 02:07:42;;;;;;;;;;;5.80;99.90;;;;;;5074549;28;20286;-85
2022/01/02 02:12:39;;;;;;;;;;;5.70;99.90;;;;;;5074579;28;20256;-83
2022/01/02 02:15:05;;;;;;;;;;;5.70;99.90;;;;;;5074689;28;19977;-78
2022/01/02 02:17:32;;;;;;;;;;;5.80;99.90;;;;;;5074692;28;19908;-77
2022/01/02 02:20:11;;;;;;;;;;;5.70;99.90;;;;;;5074702;28;19913;-86
2022/01/02 02:22:40;;;;;;;;;;;5.60;99.90;;;;;;5074600;28;19909;-76
2022/01/02 02:25:07;;;;;;;;;;;5.60;99.90;;;;;;5074582;28;20020;-87
2022/01/02 02:27:32;;;;;;;;;;;5.70;99.90;;;;;;5074519;28;20381;-86
2022/01/02 02:29:58;;;;;;;;;;;5.80;99.90;;;;;;5074467;28;19908;-84
2022/01/02 02:32:24;;;;;;;;;;;5.80;99.90;;;;;;5074196;28;19912;-86
2022/01/02 02:34:50;;;;;;;;;;;5.80;99.90;;;;;;5074232;28;19912;-85
2022/01/02 02:37:15;;;;;;;;;;;5.70;99.90;;;;;;5074300;28;20355;-86
2022/01/02 02:39:41;;;;;;;;;;;5.70;99.90;;;;;;5074277;28;20361;-86
2022/01/02 02:42:15;;;;;;;;;;;5.70;99.90;;;;;;5074236;28;19908;-78
2022/01/02 02:44:40;;;;;;;;;;;5.20;99.90;;;;;;5073734;28;19912;-82
2022/01/02 02:49:50;;;;;;;;;;;5.10;99.90;;;;;;5073885;28;19923;-76
2022/01/02 02:53:01;;;;;;;;;;;5.20;99.90;;;;;;5073950;28;19999;-86
2022/01/02 02:55:02;;;;;;;;;;;5.40;99.90;;;;;;5062884;28;19908;-82
2022/01/02 02:57:27;;;;;;;;;;;5.40;99.90;;;;;;5073799;28;19915;-76
2022/01/02 02:59:53;;;;;;;;;;;5.40;99.90;;;;;;5073721;28;20351;-83
2022/01/02 03:02:18;;;;;;;;;;;5.50;99.90;;;;;;5073859;28;19912;-85
2022/01/02 03:04:44;;;;;;;;;;;5.50;99.90;;;;;;5073716;28;20351;-86
2022/01/02 03:07:10;;;;;;;;;;;5.40;99.90;;;;;;5070256;28;19936;-83
2022/01/02 03:09:41;;;;;;;;;;;5.20;99.90;;;;;;5052247;28;20397;-76
2022/01/02 03:12:07;;;;;;;;;;;5.20;99.90;;;;;;5073813;28;19954;-82
2022/01/02 03:14:33;;;;;;;;;;;5.30;99.90;;;;;;5055625;28;19916;-76
2022/01/02 03:16:59;;;;;;;;;;;5.00;99.90;;;;;;5073675;28;19908;-85
2022/01/02 03:19:25;;;;;;;;;;;5.40;99.90;;;;;;5072905;28;19908;-84
2022/01/02 03:21:51;;;;;;;;;;;5.30;99.90;;;;;;5073573;28;20297;-84
2022/01/02 03:24:16;;;;;;;;;;;5.40;99.90;;;;;;5073478;28;19973;-85
2022/01/02 03:26:42;;;;;;;;;;;5.30;99.90;;;;;;5073585;28;20283;-81
2022/01/02 03:29:07;;;;;;;;;;;5.10;99.90;;;;;;5073475;28;19959;-83
2022/01/02 03:31:33;;;;;;;;;;;5.20;99.90;;;;;;5073470;28;19912;-84
2022/01/02 03:33:59;;;;;;;;;;;5.20;99.90;;;;;;5073342;28;19909;-83
2022/01/02 03:36:24;;;;;;;;;;;5.10;99.90;;;;;;5073385;28;19908;-75
2022/01/02 03:38:50;;;;;;;;;;;5.10;99.90;;;;;;5073440;28;19908;-83
2022/01/02 03:41:15;;;;;;;;;;;5.30;99.90;;;;;;5073559;28;19915;-80
2022/01/02 03:43:41;;;;;;;;;;;5.20;99.90;;;;;;5073275;28;19919;-83
2022/01/02 03:46:07;;;;;;;;;;;5.20;99.90;;;;;;5073293;28;19966;-83
2022/01/02 03:48:33;;;;;;;;;;;5.00;99.90;;;;;;5072536;28;19923;-77
2022/01/02 03:50:59;;;;;;;;;;;5.10;99.90;;;;;;5073220;28;19994;-84
2022/01/02 03:53:25;;;;;;;;;;;5.20;99.90;;;;;;5073555;28;19995;-84
2022/01/02 03:55:51;;;;;;;;;;;5.30;99.90;;;;;;5073112;28;19999;-84
2022/01/02 03:58:16;;;;;;;;;;;5.10;99.90;;;;;;5072910;28;20418;-85
2022/01/02 04:00:42;;;;;;;;;;;5.10;99.90;;;;;;5072935;28;19918;-86
2022/01/02 04:03:07;;;;;;;;;;;4.90;99.90;;;;;;5073125;28;19942;-84
2022/01/02 04:05:35;;;;;;;;;;;;;;;;;;5072968;28;19952;-81
2022/01/02 04:08:01;;;;;;;;;;;;;;;;;;5072927;28;20401;-81
2022/01/02 04:10:27;;;;;;;;;;;4.20;99.90;;;;;;5073093;28;20317;-82
2022/01/02 04:12:52;;;;;;;;;;;3.80;99.90;;;;;;5073193;28;19912;-82
2022/01/02 04:15:18;;;;;;;;;;;3.60;99.90;;;;;;5073133;28;19916;-74
2022/01/02 04:17:44;;;;;;;;;;;;;;;;;;5073001;28;19916;-82
2022/01/02 04:20:11;;;;;;;;;;;3.50;99.90;;;;;;5073219;28;19915;-83
2022/01/02 04:22:36;;;;;;;;;;;3.50;99.90;;;;;;5072962;28;19909;-84
2022/01/02 04:25:03;;;;;;;;;;;3.30;99.90;;;;;;5072854;28;19915;-83
2022/01/02 04:27:29;;;;;;;;;;;3.40;99.90;;;;;;5073144;28;19912;-75
2022/01/02 04:29:54;;;;;;;;;;;3.50;99.90;;;;;;5074428;28;19973;-79
2022/01/02 04:32:20;;;;;;;;;;;3.60;99.90;;;;;;5076599;28;19915;-83
2022/01/02 04:34:46;;;;;;;;;;;3.50;99.90;;;;;;5076275;28;20351;-85
2022/01/02 04:37:12;;;;;;;;;;;;;;;;;;5076239;28;19999;-83
2022/01/02 04:39:38;;;;;;;;;;;3.90;99.90;;;;;;5076330;28;19912;-75
2022/01/02 04:42:03;;;;;;;;;;;3.90;99.90;;;;;;5076280;28;20382;-79
2022/01/02 04:44:29;;;;;;;;;;;3.80;99.90;;;;;;5076519;28;20327;-82
2022/01/02 04:46:55;;;;;;;;;;;3.70;99.90;;;;;;5076512;28;19934;-82
2022/01/02 04:49:20;;;;;;;;;;;3.60;99.90;;;;;;5076086;28;19946;-75
2022/01/02 04:51:46;;;;;;;;;;;3.30;99.90;;;;;;5075887;28;19969;-86
2022/01/02 04:54:12;;;;;;;;;;;3.10;99.90;;;;;;5076144;28;19954;-82
2022/01/02 04:56:37;;;;;;;;;;;3.00;99.90;;;;;;5076043;28;19912;-84
2022/01/02 04:59:03;;;;;;;;;;;3.00;99.90;;;;;;5075878;28;19912;-83
2022/01/02 05:01:28;;;;;;;;;;;2.90;99.90;;;;;;5075985;28;19927;-83
2022/01/02 05:03:54;;;;;;;;;;;2.90;99.90;;;;;;5075782;28;19920;-84
2022/01/02 05:06:20;;;;;;;;;;;3.00;99.90;;;;;;5091370;28;19913;-84
2022/01/02 05:08:46;;;;;;;;;;;2.90;99.90;;;;;;5075907;28;19916;-83
2022/01/02 05:11:13;;;;;;;;;;;2.90;99.90;;;;;;5076078;28;19947;-86
2022/01/02 05:13:39;;;;;;;;;;;2.80;99.90;;;;;;5075866;28;20468;-84
2022/01/02 05:16:05;;;;;;;;;;;2.90;99.90;;;;;;5091300;28;19912;-79
2022/01/02 05:18:31;;;;;;;;;;;;;;;;;;5075743;28;19908;-75
2022/01/02 05:20:56;;;;;;;;;;;3.30;99.90;;;;;;5075543;28;19909;-81
2022/01/02 05:23:22;;;;;;;;;;;3.30;99.90;;;;;;5075696;28;20247;-83
2022/01/02 05:25:48;;;;;;;;;;;3.20;99.90;;;;;;5075752;28;20002;-75
2022/01/02 05:28:13;;;;;;;;;;;3.30;99.90;;;;;;5075595;28;19923;-85
2022/01/02 05:30:40;;;;;;;;;;;3.30;99.90;;;;;;5075655;28;19908;-84
2022/01/02 05:33:05;;;;;;;;;;;3.20;99.90;;;;;;5075511;28;19965;-77
2022/01/02 05:35:31;;;;;;;;;;;3.20;99.90;;;;;;5075514;28;19912;-84
2022/01/02 05:37:57;;;;;;;;;;;3.10;99.90;;;;;;5075460;28;19963;-74
2022/01/02 05:40:24;;;;;;;;;;;3.30;99.90;;;;;;5074415;28;19915;-80
2022/01/02 05:42:49;;;;;;;;;;;3.20;99.90;;;;;;5073868;28;20351;-74
2022/01/02 05:45:15;;;;;;;;;;;3.10;99.90;;;;;;5074969;28;19912;-79
2022/01/02 05:47:40;;;;;;;;;;;3.10;99.90;;;;;;5074204;28;19917;-82
2022/01/02 05:50:06;;;;;;;;;;;3.10;99.90;;;;;;5074740;28;19912;-81
2022/01/02 05:52:32;;;;;;;;;;;3.20;99.90;;;;;;5075303;28;19986;-78
2022/01/02 05:54:58;;;;;;;;;;;3.20;99.90;;;;;;5074863;28;19943;-74
2022/01/02 05:57:24;;;;;;;;;;;3.20;99.90;;;;;;5074821;28;19915;-86
2022/01/02 05:59:49;;;;;;;;;;;3.20;99.90;;;;;;5074986;28;19913;-85
2022/01/02 06:02:15;;;;;;;;;;;3.00;99.90;;;;;;5074894;28;20260;-81
2022/01/02 06:04:41;;;;;;;;;;;3.20;99.90;;;;;;5074512;28;20006;-82
2022/01/02 06:07:08;;;;;;;;;;;;;;;;;;5074455;28;19912;-75
2022/01/02 06:09:33;;;;;;;;;;;3.40;99.90;;;;;;5074893;28;19917;-80
2022/01/02 06:11:59;;;;;;;;;;;3.40;99.90;;;;;;5074887;28;19913;-74
2022/01/02 06:14:25;;;;;;;;;;;3.30;99.90;;;;;;5074118;28;19908;-74
2022/01/02 06:16:50;;;;;;;;;;;3.30;99.90;;;;;;5073818;28;19998;-74
2022/01/02 06:19:16;;;;;;;;;;;3.30;99.90;;;;;;5074126;28;19943;-85
2022/01/02 06:21:41;;;;;;;;;;;3.30;99.90;;;;;;5073122;28;19919;-74
2022/01/02 06:24:07;;;;;;;;;;;3.30;99.90;;;;;;5073207;28;20279;-74
2022/01/02 06:26:33;;;;;;;;;;;3.20;99.90;;;;;;5073025;28;19915;-82
2022/01/02 06:29:02;;;;;;;;;;;3.20;99.90;;;;;;5072126;28;19916;-84
2022/01/02 06:31:29;;;;;;;;;;;3.10;99.90;;;;;;5072832;28;20359;-76
2022/01/02 06:33:54;;;;;;;;;;;3.10;99.90;;;;;;5070081;28;20286;-75
2022/01/02 06:36:20;;;;;;;;;;;3.00;99.90;;;;;;5069264;28;19919;-74
2022/01/02 06:38:45;;;;;;;;;;;2.90;99.90;;;;;;5066766;28;20002;-76
2022/01/02 06:41:12;;;;;;;;;;;3.10;99.90;;;;;;5071881;28;19978;-79
2022/01/02 06:43:38;;;;;;;;;;;3.10;99.90;;;;;;5067237;28;20022;-83
2022/01/02 06:46:04;;;;;;;;;;;3.20;99.90;;;;;;5072587;28;19998;-85
2022/01/02 06:48:30;;;;;;;;;;;2.90;99.90;;;;;;5072498;28;19920;-73
2022/01/02 06:50:55;;;;;;;;;;;2.80;99.90;;;;;;5072613;28;20351;-82
2022/01/02 06:53:21;;;;;;;;;;;2.70;99.90;;;;;;5068952;28;19914;-83
2022/01/02 06:55:47;;;;;;;;;;;2.70;99.90;;;;;;5054466;28;19999;-79
2022/01/02 06:58:14;;;;;;;;;;;2.80;99.90;;;;;;5073255;28;19920;-83
2022/01/02 07:00:40;;;;;;;;;;;2.70;99.90;;;;;;5073902;28;19909;-84
2022/01/02 07:03:06;;;;;;;;;;;2.60;99.90;;;;;;5073826;28;19999;-84
2022/01/02 07:05:31;;;;;;;;;;;2.70;99.90;;;;;;5073854;28;19908;-84
2022/01/02 07:07:57;;;;;;;;;;;2.60;99.90;;;;;;5073793;28;19927;-78
2022/01/02 07:10:23;;;;;;;;;;;;;;;;;;5071437;28;19916;-75
2022/01/02 07:12:49;;;;;;;;;;;3.00;99.90;;;;;;5071282;28;19908;-82
2022/01/02 07:15:15;;;;;;;;;;;;;;;;;;5072008;28;19915;-82
2022/01/02 07:17:41;;;;;;;;;;;;;;;;;;5073308;28;19926;-77
2022/01/02 07:20:07;;;;;;;;;;;;;;;;;;5073452;28;19908;-84
2022/01/02 07:22:33;;;;;;;;;;;3.30;99.90;;;;;;5073507;28;19912;-85
2022/01/02 07:24:59;;;;;;;;;;;3.00;99.90;;;;;;5073604;28;19912;-82
2022/01/02 07:27:24;;;;;;;;;;;2.80;99.90;;;;;;5073524;28;19916;-77
2022/01/02 07:29:51;;;;;;;;;;;2.60;99.90;;;;;;5073651;28;19940;-85
2022/01/02 07:32:17;;;;;;;;;;;2.60;99.90;;;;;;5073554;28;19966;-85
2022/01/02 07:34:43;;;;;;;;;;;2.50;99.90;;;;;;5073390;28;19908;-78
2022/01/02 07:37:09;;;;;;;;;;;2.80;99.90;;;;;;5073270;28;19912;-79
2022/01/02 07:39:35;;;;;;;;;;;2.80;99.90;;;;;;5073358;28;19935;-78
2022/01/02 07:42:01;;;;;;;;;;;2.90;99.90;;;;;;5073381;28;19915;-79
2022/01/02 07:44:26;;;;;;;;;;;3.00;99.90;;;;;;5073230;28;20313;-79
2022/01/02 07:46:52;;;;;;;;;;;3.20;99.90;;;;;;5072815;28;19915;-82
2022/01/02 07:49:18;;;;;;;;;;;3.20;99.90;;;;;;5073313;28;19922;-76
2022/01/02 07:51:43;;;;;;;;;;;3.40;99.90;;;;;;5073285;28;19909;-86
2022/01/02 07:54:12;;;;;;;;;;;3.50;99.90;;;;;;5073162;28;19912;-85
2022/01/02 07:56:37;;;;;;;;;;;3.60;99.90;;;;;;5072847;28;20371;-85
2022/01/02 07:59:03;;;;;;;;;;;3.70;99.90;;;;;;5073228;28;19942;-85
2022/01/02 08:01:28;;;;;;;;;;;3.70;99.90;;;;;;5073367;28;19940;-83
2022/01/02 08:03:54;;;;;;;;;;;3.70;99.90;;;;;;5073166;28;20561;-84
2022/01/02 08:06:20;;;;;;;;;;;3.80;99.90;;;;;;5076920;28;19909;-84
2022/01/02 08:08:45;;;;;;;;;;;3.70;99.90;;;;;;5075883;28;20014;-75
2022/01/02 08:11:11;;;;;;;;;;;;;;;;;;5077243;28;19938;-77
2022/01/02 08:13:37;;;;;;;;;;;3.80;99.90;;;;;;5077162;28;19927;-84
2022/01/02 08:16:03;;;;;;;;;;;3.80;99.90;;;;;;5077157;28;20302;-85
2022/01/02 08:18:28;;;;;;;;;;;3.80;99.90;;;;;;5076621;28;20005;-78
2022/01/02 08:20:54;;;;;;;;;;;3.90;99.90;;;;;;5076866;28;19915;-84
2022/01/02 08:23:19;;;;;;;;;;;4.00;99.90;;;;;;5076929;28;19915;-82
2022/01/02 08:25:45;;;;;;;;;;;3.90;99.90;;;;;;5077023;28;19912;-84
2022/01/02 08:28:11;;;;;;;;;;;3.80;99.90;;;;;;5076819;28;19920;-77
2022/01/02 08:30:36;;;;;;;;;;;3.70;99.90;;;;;;5076693;28;19908;-79
2022/01/02 08:33:02;;;;;;;;;;;3.80;99.90;;;;;;5076715;28;19912;-85
2022/01/02 08:35:27;;;;;;;;;;;3.70;99.90;;;;;;5076727;28;19954;-74
2022/01/02 08:37:53;;;;;;;;;;;3.50;99.90;;;;;;5076587;28;19908;-84
2022/01/02 08:40:19;;;;;;;;;;;3.40;99.90;;;;;;5076353;28;19927;-85
2022/01/02 08:42:44;;;;;;;;;;;3.60;99.90;;;;;;5076325;28;19923;-86
2022/01/02 08:45:10;;;;;;;;;;;3.80;99.90;;;;;;5076564;28;19909;-86
2022/01/02 08:47:36;;;;;;;;;;;3.90;99.90;;;;;;5076475;28;19922;-78
2022/01/02 08:50:02;;;;;;;;;;;4.00;99.90;;;;;;5076135;28;19962;-77
2022/01/02 08:52:28;;;;;;;;;;;4.00;99.90;;;;;;5076166;28;19970;-74
2022/01/02 08:54:53;;;;;;;;;;;4.10;99.90;;;;;;5076154;28;19909;-73
2022/01/02 08:57:19;;;;;;;;;;;4.10;99.90;;;;;;5076288;28;19914;-85
2022/01/02 08:59:44;;;;;;;;;;;4.10;99.90;;;;;;5075842;28;19991;-85
2022/01/02 09:02:10;;;;;;;;;;;4.20;99.90;;;;;;5075868;28;19908;-86
2022/01/02 09:04:36;;;;;;;;;;;4.30;99.90;;;;;;5076094;28;20278;-86
2022/01/02 09:07:01;;;;;;;;;;;4.50;99.90;;;;;;5075962;28;19912;-75
2022/01/02 09:09:27;;;;;;;;;;;4.40;99.90;;;;;;5075930;28;19926;-81
2022/01/02 09:11:53;;;;;;;;;;;4.30;99.90;;;;;;5075804;28;19943;-75
2022/01/02 09:14:19;;;;;;;;;;;4.20;99.90;;;;;;5075671;28;19946;-84
2022/01/02 09:16:45;;;;;;;;;;;4.20;99.90;;;;;;5074753;28;19909;-77
2022/01/02 09:19:11;;;;;;;;;;;4.40;99.90;;;;;;5057806;28;20002;-85
2022/01/02 09:21:36;;;;;;;;;;;4.30;99.90;;;;;;5075666;28;19980;-85
2022/01/02 09:24:03;;;;;;;;;;;4.40;99.90;;;;;;5075879;28;20366;-83
2022/01/02 09:26:28;;;;;;;;;;;4.50;99.90;;;;;;5057797;28;19914;-82
2022/01/02 09:28:54;;;;;;;;;;;4.70;99.90;;;;;;5075701;28;19916;-84
2022/01/02 09:31:19;;;;;;;;;;;4.70;99.90;;;;;;5075824;28;20362;-84
2022/01/02 09:33:45;;;;;;;;;;;4.60;99.90;;;;;;5075718;28;19916;-85
2022/01/02 09:36:11;;;;;;;;;;;4.70;99.90;;;;;;5075651;28;20270;-85
2022/01/02 09:38:36;;;;;;;;;;;4.90;99.90;;;;;;5075622;28;19908;-85
2022/01/02 09:41:02;;;;;;;;;;;4.90;99.90;;;;;;5075752;28;19908;-85
2022/01/02 09:43:28;;;;;;;;;;;4.80;99.90;;;;;;5075564;28;19950;-83
2022/01/02 09:45:53;;;;;;;;;;;4.90;99.90;;;;;;5075594;28;19916;-80
2022/01/02 09:48:19;;;;;;;;;;;4.90;99.90;;;;;;5075437;28;19916;-82
2022/01/02 09:50:47;;;;;;;;;;;4.90;99.90;;;;;;5075418;28;19915;-84
2022/01/02 09:53:13;;;;;;;;;;;4.90;99.90;;;;;;5074895;28;19939;-76
2022/01/02 09:55:39;;;;;;;;;;;4.70;99.90;;;;;;5075280;28;19915;-84
2022/01/02 09:58:10;;;;;;;;;;;4.70;99.90;;;;;;5075064;28;19955;-84
2022/01/02 10:00:37;;;;;;;;;;;4.70;99.90;;;;;;5107505;28;19908;-80
2022/01/02 10:03:04;;;;;;;;;;;4.80;99.90;;;;;;5074890;28;20267;-85
2022/01/02 10:05:47;;;;;;;;;;;4.80;99.90;;;;;;5073792;28;19908;-82
2022/01/02 10:08:39;;;;;;;;;;;4.90;99.90;;;;;;5074795;28;20274;-76
2022/01/02 10:11:07;;;;;;;;;;;5.00;99.90;;;;;;5072718;28;19908;-74
2022/01/02 10:13:33;;;;;;;;;;;;;;;;;;5065000;28;20034;-82
2022/01/02 10:15:58;;;;;;;;;;;5.40;99.90;;;;;;5056900;28;20005;-84
2022/01/02 10:18:24;;;;;;;;;;;5.10;99.90;;;;;;5074807;28;19912;-83
2022/01/02 10:20:50;;;;;;;;;;;5.10;99.90;;;;;;5074570;28;20386;-82
2022/01/02 10:23:22;;;;;;;;;;;5.20;99.90;;;;;;5074673;28;19944;-82
2022/01/02 10:25:53;;;;;;;;;;;5.30;99.90;;;;;;5056818;28;19915;-84
2022/01/02 10:28:27;;;;;;;;;;;5.40;99.90;;;;;;5074497;28;19923;-82
2022/01/02 10:30:59;;;;;;;;;;;5.60;99.90;;;;;;5074630;28;19915;-77
2022/01/02 10:33:25;;;;;;;;;;;5.60;99.90;;;;;;5074565;28;19912;-83
2022/01/02 10:35:58;;;;;;;;;;;5.70;99.90;;;;;;5074541;28;19908;-83
2022/01/02 10:38:24;;;;;;;;;;;5.70;99.90;;;;;;5074527;28;20424;-84
2022/01/02 10:40:50;;;;;;;;;;;5.70;99.90;;;;;;5074272;28;19912;-78
2022/01/02 10:43:24;;;;;;;;;;;5.70;99.90;;;;;;5073533;28;20355;-80
2022/01/02 10:45:50;;;;;;;;;;;5.70;99.90;;;;;;5074086;28;19912;-83
2022/01/02 10:48:18;;;;;;;;;;;5.60;99.90;;;;;;5073905;28;19917;-76
2022/01/02 10:50:58;;;;;;;;;;;5.60;99.90;;;;;;5073974;28;19962;-84
2022/01/02 10:53:24;;;;;;;;;;;5.50;99.90;;;;;;5066365;28;19915;-84
2022/01/02 10:55:50;;;;;;;;;;;5.50;99.90;;;;;;5073746;28;20367;-83
2022/01/02 10:58:15;;;;;;;;;;;5.60;99.90;;;;;;5073749;28;19916;-76
2022/01/02 11:00:41;;;;;;;;;;;5.60;99.90;;;;;;5073942;28;20003;-76
2022/01/02 11:03:07;;;;;;;;;;;5.70;99.90;;;;;;5073381;28;19908;-77
2022/01/02 11:05:36;;;;;;;;;;;5.70;99.90;;;;;;5073754;28;19908;-83
2022/01/02 11:08:03;;;;;;;;;;;5.80;99.90;;;;;;5073715;28;20355;-83
2022/01/02 11:10:31;;;;;;;;;;;5.90;99.90;;;;;;5073782;28;19934;-82
2022/01/02 11:12:56;;;;;;;;;;;5.80;99.90;;;;;;5073838;28;20240;-77
2022/01/02 11:15:23;;;;;;;;;;;5.80;99.90;;;;;;5070122;28;20048;-81
2022/01/02 11:17:49;;;;;;;;;;;5.90;99.90;;;;;;5071198;28;19908;-82
2022/01/02 11:20:19;;;;;;;;;;;6.00;99.90;;;;;;5072561;28;19908;-81
2022/01/02 11:22:49;;;;;;;;;;;6.20;99.90;;;;;;5073605;28;19908;-82
2022/01/02 11:25:33;;;;;;;;;;;6.40;99.90;;;;;;5073293;28;19908;-81
2022/01/02 11:28:02;;;;;;;;;;;6.30;99.90;;;;;;5055620;28;19916;-82
2022/01/02 11:30:31;;;;;;;;;;;6.70;99.90;;;;;;5073844;28;20335;-78
2022/01/02 11:33:01;;;;;;;;;;;8.00;99.90;;;;;;5073607;28;19915;-78
2022/01/02 11:35:30;;;;;;;;;;;7.70;99.90;;;;;;5073467;28;19966;-79
2022/01/02 11:38:01;;;;;;;;;;;6.90;99.90;;;;;;5073427;28;19908;-78
2022/01/02 11:40:45;;;;;;;;;;;6.70;99.90;;;;;;5072851;28;20003;-78
2022/01/02 11:43:30;;;;;;;;;;;6.60;99.90;;;;;;5073147;28;20267;-82
2022/01/02 11:46:13;;;;;;;;;;;6.50;99.90;;;;;;5072340;28;19916;-81
2022/01/02 11:48:38;;;;;;;;;;;6.50;99.90;;;;;;5073178;28;19916;-84
2022/01/02 11:51:04;;;;;;;;;;;6.30;99.90;;;;;;5073350;28;19954;-77
2022/01/02 11:53:34;;;;;;;;;;;6.20;99.90;;;;;;5073274;28;19908;-79
2022/01/02 11:55:59;;;;;;;;;;;6.30;99.90;;;;;;5073368;28;19913;-77
2022/01/02 11:58:54;;;;;;;;;;;6.40;99.90;;;;;;5073520;28;19966;-76
2022/01/02 12:01:39;;;;;;;;;;;6.40;99.90;;;;;;5075690;28;19978;-78
2022/01/02 12:04:04;;;;;;;;;;;6.40;99.90;;;;;;5088678;28;19954;-77
2022/01/02 12:06:34;;;;;;;;;;;6.30;99.90;;;;;;5072981;28;19913;-77
2022/01/02 12:09:00;;;;;;;;;;;6.30;99.90;;;;;;5088357;28;19920;-81
2022/01/02 12:11:32;;;;;;;;;;;6.40;99.90;;;;;;5073157;28;19986;-80
2022/01/02 12:14:07;;;;;;;;;;;6.30;99.90;;;;;;5073178;28;20418;-79
2022/01/02 12:16:37;;;;;;;;;;;6.30;99.90;;;;;;5073027;28;19912;-80
2022/01/02 12:19:03;;;;;;;;;;;6.40;99.90;;;;;;5072582;28;19954;-80
2022/01/02 12:21:31;;;;;;;;;;;6.40;99.90;;;;;;5088396;28;19912;-81
2022/01/02 12:23:57;;;;;;;;;;;6.50;99.90;;;;;;5072255;28;19912;-80
2022/01/02 12:26:27;;;;;;;;;;;6.60;99.90;;;;;;5072728;28;19919;-81
2022/01/02 12:29:02;;;;;;;;;;;6.50;99.90;;;;;;5067465;28;19920;-79
2022/01/02 12:31:29;;;;;;;;;;;6.60;99.90;;;;;;5072361;28;19912;-81
2022/01/02 12:34:01;;;;;;;;;;;6.60;99.90;;;;;;5072416;28;19908;-80
2022/01/02 12:36:27;;;;;;;;;;;6.60;99.90;;;;;;5072444;28;19916;-80
2022/01/02 12:38:52;;;;;;;;;;;6.60;99.90;;;;;;5072136;28;19909;-81
2022/01/02 12:41:23;;;;;;;;;;;6.50;99.90;;;;;;5071931;28;19912;-79
2022/01/02 12:44:03;;;;;;;;;;;6.50;99.90;;;;;;5084715;28;20275;-79
2022/01/02 12:46:32;;;;;;;;;;;6.50;99.90;;;;;;5069886;28;19920;-82
2022/01/02 12:48:58;;;;;;;;;;;6.50;99.90;;;;;;5072069;28;19917;-79
2022/01/02 12:51:27;;;;;;;;;;;6.50;99.90;;;;;;5054607;28;19915;-80
2022/01/02 12:54:03;;;;;;;;;;;6.60;99.90;;;;;;5090498;28;19990;-79
2022/01/02 12:56:40;;;;;;;;;;;6.60;99.90;;;;;;5073366;28;19917;-79
2022/01/02 12:59:35;;;;;;;;;;;6.70;99.90;;;;;;5075769;28;19919;-79
2022/01/02 13:02:05;;;;;;;;;;;6.80;99.90;;;;;;5054160;28;20287;-79
2022/01/02 13:04:34;;;;;;;;;;;6.80;99.90;;;;;;5075469;28;19909;-79
2022/01/02 13:07:01;;;;;;;;;;;6.70;99.90;;;;;;5074432;28;19954;-79
2022/01/02 13:09:31;;;;;;;;;;;6.90;99.90;;;;;;5072700;28;19938;-79
2022/01/02 13:11:57;;;;;;;;;;;6.90;99.90;;;;;;5075896;28;20382;-79
2022/01/02 13:14:36;;;;;;;;;;;6.90;99.90;;;;;;5075402;28;19909;-78
2022/01/02 13:17:03;;;;;;;;;;;7.10;99.90;;;;;;5075590;28;19962;-78
2022/01/02 13:19:29;;;;;;;;;;;7.10;99.90;;;;;;5075832;28;19908;-76
2022/01/02 13:21:54;;;;;;;;;;;7.20;99.90;;;;;;5075930;28;20461;-76
2022/01/02 13:24:21;;;;;;;;;;;7.40;99.90;;;;;;5075626;28;20294;-76
2022/01/02 13:26:46;;;;;;;;;;;7.40;99.90;;;;;;5075718;28;19908;-76
2022/01/02 13:29:18;;;;;;;;;;;7.40;99.90;;;;;;5075455;28;20003;-76
2022/01/02 13:31:44;;;;;;;;;;;7.70;99.90;;;;;;5075202;28;19924;-75
2022/01/02 13:34:09;;;;;;;;;;;;;;;;;;5075411;28;20256;-76
2022/01/02 13:36:35;;;;;;;;;;;7.80;99.90;;;;;;5075204;28;19944;-79
2022/01/02 13:39:01;;;;;;;;;;;7.70;99.90;;;;;;5075433;28;19946;-78
2022/01/02 13:41:28;;;;;;;;;;;7.50;99.90;;;;;;5065406;28;19915;-79
2022/01/02 13:43:54;;;;;;;;;;;7.40;99.90;;;;;;5075121;28;19908;-79
2022/01/02 13:46:20;;;;;;;;;;;7.50;99.90;;;;;;5074007;28;19999;-77
2022/01/02 13:48:45;;;;;;;;;;;7.50;99.90;;;;;;5073590;28;19920;-77
2022/01/02 13:51:15;;;;;;;;;;;7.30;99.90;;;;;;5073825;28;20351;-77
2022/01/02 13:53:41;;;;;;;;;;;7.40;99.90;;;;;;5073826;28;19912;-78
2022/01/02 13:56:08;;;;;;;;;;;7.40;99.90;;;;;;5074431;28;20003;-78
2022/01/02 13:58:37;;;;;;;;;;;7.50;99.90;;;;;;5074771;28;19918;-77
2022/01/02 14:01:04;;;;;;;;;;;7.50;99.90;;;;;;5074922;28;19944;-78
2022/01/02 14:03:34;;;;;;;;;;;7.50;99.90;;;;;;5074534;28;19908;-78
2022/01/02 14:06:04;;;;;;;;;;;7.50;99.90;;;;;;5074790;28;19908;-77
2022/01/02 14:08:30;;;;;;;;;;;7.50;99.90;;;;;;5074999;28;19970;-77
2022/01/02 14:11:25;;;;;;;;;;;7.50;99.90;;;;;;5074083;28;19908;-77
2022/01/02 14:14:04;;;;;;;;;;;7.50;99.90;;;;;;5072534;28;20294;-78
2022/01/02 14:19:02;;;;;;;;;;;7.80;99.90;;;;;;5074891;28;19912;-77
2022/01/02 14:21:28;;;;;;;;;;;7.80;99.90;;;;;;5089968;28;20386;-77
2022/01/02 14:23:54;;;;;;;;;;;7.80;99.90;;;;;;5074542;28;19908;-77
2022/01/02 14:26:23;;;;;;;;;;;7.80;99.90;;;;;;5074561;28;19998;-77
2022/01/02 14:28:56;;;;;;;;;;;7.80;99.90;;;;;;5074414;28;20272;-78
2022/01/02 14:31:21;;;;;;;;;;;7.80;99.90;;;;;;5074517;28;19908;-77
2022/01/02 14:33:47;;;;;;;;;;;7.80;99.90;;;;;;5074559;28;19990;-80
2022/01/02 14:36:13;;;;;;;;;;;7.80;99.90;;;;;;5074644;28;19912;-77
2022/01/02 14:38:38;;;;;;;;;;;7.90;99.90;;;;;;5074560;28;19908;-77
2022/01/02 14:41:04;;;;;;;;;;;8.00;99.90;;;;;;5074415;28;19908;-78
2022/01/02 14:43:30;;;;;;;;;;;8.00;99.90;;;;;;5074358;28;19934;-77
2022/01/02 14:45:55;;;;;;;;;;;7.90;99.90;;;;;;5074145;28;19908;-77
2022/01/02 14:48:23;;;;;;;;;;;8.00;99.90;;;;;;5074092;28;19921;-78